sensor_id;sensor_type;location;lat;lon;timestamp;pressure;altitude;pressure_sealevel;temperature;humidity
12757;BME280;31601;48.042;12.240;2023-02-23T00:01:56;95810.63;;;7.65;64.00
12757;BME280;31601;48.042;12.240;2023-02-23T00:04:25;95815.03;;;7.65;64.07
12757;BME280;31601;48.042;12.240;2023-02-23T00:06:52;95809.47;;;7.68;64.12
12757;BME280;31601;48.042;12.240;2023-02-23T00:09:18;95820.00;;;7.75;63.49
12757;BME280;31601;48.042;12.240;2023-02-23T00:11:50;95811.28;;;7.82;63.29
12757;BME280;31601;48.042;12.240;2023-02-23T00:14:17;95811.28;;;7.82;62.93
12757;BME280;31601;48.042;12.240;2023-02-23T00:16:43;95801.09;;;7.73;62.82
12757;BME280;31601;48.042;12.240;2023-02-23T00:19:11;95809.47;;;7.83;62.73
12757;BME280;31601;48.042;12.240;2023-02-23T00:21:39;95805.91;;;7.61;62.27
12757;BME280;31601;48.042;12.240;2023-02-23T00:24:07;95805.03;;;7.68;62.33
12757;BME280;31601;48.042;12.240;2023-02-23T00:26:36;95804.81;;;7.55;62.25
12757;BME280;31601;48.042;12.240;2023-02-23T00:29:06;95806.91;;;7.60;62.60
12757;BME280;31601;48.042;12.240;2023-02-23T00:31:33;95804.63;;;7.57;62.49
12757;BME280;31601;48.042;12.240;2023-02-23T00:34:03;95812.72;;;7.47;62.49
12757;BME280;31601;48.042;12.240;2023-02-23T00:36:32;95805.84;;;7.46;62.38
12757;BME280;31601;48.042;12.240;2023-02-23T00:39:00;95816.31;;;7.46;62.96
12757;BME280;31601;48.042;12.240;2023-02-23T00:41:30;95819.91;;;7.45;62.86
12757;BME280;31601;48.042;12.240;2023-02-23T00:43:58;95813.13;;;7.35;62.86
12757;BME280;31601;48.042;12.240;2023-02-23T00:46:28;95821.47;;;7.31;63.01
12757;BME280;31601;48.042;12.240;2023-02-23T00:48:56;95822.56;;;7.37;62.93
12757;BME280;31601;48.042;12.240;2023-02-23T00:51:24;95817.50;;;7.35;63.12
12757;BME280;31601;48.042;12.240;2023-02-23T00:53:55;95825.16;;;7.37;63.21
12757;BME280;31601;48.042;12.240;2023-02-23T00:56:22;95816.38;;;7.38;62.92
12757;BME280;31601;48.042;12.240;2023-02-23T00:58:48;95818.81;;;7.39;62.89
12757;BME280;31601;48.042;12.240;2023-02-23T01:01:15;95819.44;;;7.41;63.23
12757;BME280;31601;48.042;12.240;2023-02-23T01:03:44;95824.63;;;7.18;63.55
12757;BME280;31601;48.042;12.240;2023-02-23T01:06:13;95820.19;;;7.27;63.43
12757;BME280;31601;48.042;12.240;2023-02-23T01:08:42;95830.16;;;7.23;63.39
12757;BME280;31601;48.042;12.240;2023-02-23T01:11:11;95824.78;;;7.25;63.50
12757;BME280;31601;48.042;12.240;2023-02-23T01:13:39;95832.44;;;7.26;63.46
12757;BME280;31601;48.042;12.240;2023-02-23T01:16:08;95828.38;;;7.24;63.54
12757;BME280;31601;48.042;12.240;2023-02-23T01:18:35;95828.81;;;7.27;63.11
12757;BME280;31601;48.042;12.240;2023-02-23T01:21:04;95827.84;;;7.28;63.26
12757;BME280;31601;48.042;12.240;2023-02-23T01:23:31;95824.13;;;7.23;63.14
12757;BME280;31601;48.042;12.240;2023-02-23T01:25:58;95822.00;;;7.26;63.14
12757;BME280;31601;48.042;12.240;2023-02-23T01:28:24;95819.56;;;7.25;63.34
12757;BME280;31601;48.042;12.240;2023-02-23T01:30:51;95820.72;;;7.22;62.86
12757;BME280;31601;48.042;12.240;2023-02-23T01:33:17;95824.28;;;7.21;63.17
12757;BME280;31601;48.042;12.240;2023-02-23T01:35:44;95830.78;;;7.25;63.49
12757;BME280;31601;48.042;12.240;2023-02-23T01:38:11;95833.47;;;7.17;63.54
12757;BME280;31601;48.042;12.240;2023-02-23T01:40:41;95823.31;;;7.22;63.58
12757;BME280;31601;48.042;12.240;2023-02-23T01:43:13;95826.56;;;7.24;63.52
12757;BME280;31601;48.042;12.240;2023-02-23T01:45:40;95825.94;;;7.22;63.45
12757;BME280;31601;48.042;12.240;2023-02-23T01:48:10;95824.28;;;7.21;63.08
12757;BME280;31601;48.042;12.240;2023-02-23T01:50:43;95826.66;;;7.08;63.26
12757;BME280;31601;48.042;12.240;2023-02-23T01:53:12;95823.22;;;7.07;63.37
12757;BME280;31601;48.042;12.240;2023-02-23T01:55:38;95831.22;;;7.06;63.09
12757;BME280;31601;48.042;12.240;2023-02-23T01:58:10;95824.75;;;7.02;63.58
12757;BME280;31601;48.042;12.240;2023-02-23T02:00:41;95827.69;;;6.98;63.23
12757;BME280;31601;48.042;12.240;2023-02-23T02:03:13;95822.66;;;6.89;63.34
12757;BME280;31601;48.042;12.240;2023-02-23T02:05:40;95824.34;;;6.81;63.98
12757;BME280;31601;48.042;12.240;2023-02-23T02:08:08;95820.47;;;6.77;63.41
12757;BME280;31601;48.042;12.240;2023-02-23T02:10:37;95819.88;;;6.59;64.36
12757;BME280;31601;48.042;12.240;2023-02-23T02:13:14;95817.75;;;6.62;64.43
12757;BME280;31601;48.042;12.240;2023-02-23T02:15:58;95813.81;;;6.67;64.06
12757;BME280;31601;48.042;12.240;2023-02-23T02:18:34;95813.34;;;6.63;63.74
12757;BME280;31601;48.042;12.240;2023-02-23T02:21:47;95816.63;;;6.57;63.54
12757;BME280;31601;48.042;12.240;2023-02-23T02:27:27;95814.72;;;6.42;63.96
12757;BME280;31601;48.042;12.240;2023-02-23T02:30:26;95806.94;;;6.34;63.92
12757;BME280;31601;48.042;12.240;2023-02-23T02:33:33;95815.91;;;6.23;64.50
12757;BME280;31601;48.042;12.240;2023-02-23T02:39:17;95810.72;;;6.15;64.63
12757;BME280;31601;48.042;12.240;2023-02-23T02:41:54;95803.25;;;6.12;64.94
12757;BME280;31601;48.042;12.240;2023-02-23T02:44:27;95809.25;;;5.96;65.75
12757;BME280;31601;48.042;12.240;2023-02-23T02:47:00;95804.75;;;5.98;65.42
12757;BME280;31601;48.042;12.240;2023-02-23T02:49:37;95805.22;;;6.02;65.35
12757;BME280;31601;48.042;12.240;2023-02-23T02:52:12;95802.75;;;6.08;65.60
12757;BME280;31601;48.042;12.240;2023-02-23T02:54:45;95811.06;;;6.04;65.81
12757;BME280;31601;48.042;12.240;2023-02-23T02:57:14;95812.06;;;6.03;65.94
12757;BME280;31601;48.042;12.240;2023-02-23T02:59:43;95805.38;;;6.00;65.77
12757;BME280;31601;48.042;12.240;2023-02-23T03:02:28;95813.19;;;5.84;65.71
12757;BME280;31601;48.042;12.240;2023-02-23T03:05:17;95814.97;;;5.83;65.83
12757;BME280;31601;48.042;12.240;2023-02-23T03:08:09;95814.16;;;5.91;65.74
12757;BME280;31601;48.042;12.240;2023-02-23T03:11:01;95808.47;;;5.87;65.84
12757;BME280;31601;48.042;12.240;2023-02-23T03:13:54;95815.78;;;5.84;65.75
12757;BME280;31601;48.042;12.240;2023-02-23T03:16:46;95812.53;;;5.82;65.64
12757;BME280;31601;48.042;12.240;2023-02-23T03:19:36;95817.25;;;5.78;65.63
12757;BME280;31601;48.042;12.240;2023-02-23T03:22:25;95823.78;;;5.66;65.76
12757;BME280;31601;48.042;12.240;2023-02-23T03:25:14;95820.53;;;5.72;65.75
12757;BME280;31601;48.042;12.240;2023-02-23T03:28:10;95820.53;;;5.72;65.82
12757;BME280;31601;48.042;12.240;2023-02-23T03:31:02;95817.59;;;5.75;65.41
12757;BME280;31601;48.042;12.240;2023-02-23T03:34:10;95824.41;;;5.76;65.81
12757;BME280;31601;48.042;12.240;2023-02-23T03:37:01;95822.13;;;5.73;66.40
12757;BME280;31601;48.042;12.240;2023-02-23T03:39:52;95822.81;;;5.75;66.10
12757;BME280;31601;48.042;12.240;2023-02-23T03:42:40;95823.28;;;5.79;66.20
12757;BME280;31601;48.042;12.240;2023-02-23T03:45:28;95824.72;;;5.73;66.03
12757;BME280;31601;48.042;12.240;2023-02-23T03:48:15;95832.53;;;5.73;66.38
12757;BME280;31601;48.042;12.240;2023-02-23T03:51:03;95831.09;;;5.70;66.79
12757;BME280;31601;48.042;12.240;2023-02-23T03:53:52;95829.94;;;5.73;66.86
12757;BME280;31601;48.042;12.240;2023-02-23T03:56:40;95832.56;;;5.65;67.46
12757;BME280;31601;48.042;12.240;2023-02-23T03:59:29;95832.38;;;5.74;66.87
12757;BME280;31601;48.042;12.240;2023-02-23T04:02:17;95833.19;;;5.83;66.60
12757;BME280;31601;48.042;12.240;2023-02-23T04:05:07;95831.22;;;5.85;66.58
12757;BME280;31601;48.042;12.240;2023-02-23T04:07:53;95836.59;;;5.84;66.93
12757;BME280;31601;48.042;12.240;2023-02-23T04:10:41;95837.41;;;5.92;67.10
12757;BME280;31601;48.042;12.240;2023-02-23T04:13:29;95839.72;;;6.04;67.10
12757;BME280;31601;48.042;12.240;2023-02-23T04:15:59;95835.66;;;6.09;67.34
12757;BME280;31601;48.042;12.240;2023-02-23T04:18:29;95839.38;;;6.07;67.57
12757;BME280;31601;48.042;12.240;2023-02-23T04:20:56;95835.78;;;5.91;66.86
12757;BME280;31601;48.042;12.240;2023-02-23T04:23:24;95835.16;;;6.06;66.60
12757;BME280;31601;48.042;12.240;2023-02-23T04:25:51;95844.59;;;5.99;66.48
12757;BME280;31601;48.042;12.240;2023-02-23T04:28:18;95849.13;;;5.47;66.54
12757;BME280;31601;48.042;12.240;2023-02-23T04:30:45;95844.75;;;5.48;66.53
12757;BME280;31601;48.042;12.240;2023-02-23T04:33:11;95835.47;;;5.62;66.22
12757;BME280;31601;48.042;12.240;2023-02-23T04:35:40;95834.50;;;5.71;65.87
12757;BME280;31601;48.042;12.240;2023-02-23T04:38:06;95836.78;;;5.74;65.80
12757;BME280;31601;48.042;12.240;2023-02-23T04:40:33;95841.97;;;5.49;66.22
12757;BME280;31601;48.042;12.240;2023-02-23T04:42:59;95837.59;;;5.58;66.03
12757;BME280;31601;48.042;12.240;2023-02-23T04:45:27;95842.63;;;5.68;66.16
12757;BME280;31601;48.042;12.240;2023-02-23T04:47:53;95841.19;;;5.73;66.33
12757;BME280;31601;48.042;12.240;2023-02-23T04:50:20;95842.16;;;5.72;66.66
12757;BME280;31601;48.042;12.240;2023-02-23T04:52:48;95837.91;;;5.88;66.38
12757;BME280;31601;48.042;12.240;2023-02-23T04:55:17;95841.16;;;5.90;66.30
12757;BME280;31601;48.042;12.240;2023-02-23T04:57:43;95839.72;;;6.04;66.36
12757;BME280;31601;48.042;12.240;2023-02-23T05:00:11;95845.41;;;6.07;66.32
12757;BME280;31601;48.042;12.240;2023-02-23T05:02:37;95851.41;;;6.16;66.40
12757;BME280;31601;48.042;12.240;2023-02-23T05:05:05;95849.78;;;6.23;66.73
12757;BME280;31601;48.042;12.240;2023-02-23T05:07:32;95851.84;;;6.36;66.17
12757;BME280;31601;48.042;12.240;2023-02-23T05:10:00;95842.75;;;6.40;66.58
12757;BME280;31601;48.042;12.240;2023-02-23T05:12:27;95839.59;;;6.53;66.53
12757;BME280;31601;48.042;12.240;2023-02-23T05:14:53;95844.97;;;6.60;66.59
12757;BME280;31601;48.042;12.240;2023-02-23T05:17:19;95842.50;;;6.67;66.53
12757;BME280;31601;48.042;12.240;2023-02-23T05:19:46;95842.84;;;6.63;66.88
12757;BME280;31601;48.042;12.240;2023-02-23T05:22:12;95844.31;;;6.58;67.39
12757;BME280;31601;48.042;12.240;2023-02-23T05:24:40;95841.59;;;6.82;66.47
12757;BME280;31601;48.042;12.240;2023-02-23T05:27:08;95845.16;;;6.90;66.51
12757;BME280;31601;48.042;12.240;2023-02-23T05:29:35;95837.34;;;6.90;66.47
12757;BME280;31601;48.042;12.240;2023-02-23T05:32:02;95849.19;;;6.69;67.25
12757;BME280;31601;48.042;12.240;2023-02-23T05:34:29;95849.19;;;6.61;66.81
12757;BME280;31601;48.042;12.240;2023-02-23T05:36:55;95846.88;;;6.18;66.32
12757;BME280;31601;48.042;12.240;2023-02-23T05:39:21;95853.22;;;6.07;66.16
12757;BME280;31601;48.042;12.240;2023-02-23T05:41:48;95848.19;;;6.06;66.37
12757;BME280;31601;48.042;12.240;2023-02-23T05:44:16;95852.09;;;6.18;65.67
12757;BME280;31601;48.042;12.240;2023-02-23T05:46:44;95849.50;;;6.02;66.66
12757;BME280;31601;48.042;12.240;2023-02-23T05:49:11;95847.00;;;6.25;65.82
12757;BME280;31601;48.042;12.240;2023-02-23T05:51:38;95845.22;;;6.17;66.27
12757;BME280;31601;48.042;12.240;2023-02-23T05:54:04;95851.09;;;6.19;66.21
12757;BME280;31601;48.042;12.240;2023-02-23T05:56:31;95846.19;;;6.33;65.91
12757;BME280;31601;48.042;12.240;2023-02-23T05:58:57;95854.63;;;6.35;66.07
12757;BME280;31601;48.042;12.240;2023-02-23T06:01:26;95854.94;;;6.48;66.03
12757;BME280;31601;48.042;12.240;2023-02-23T06:03:52;95849.75;;;6.40;66.44
12757;BME280;31601;48.042;12.240;2023-02-23T06:06:20;95857.16;;;6.59;66.16
12757;BME280;31601;48.042;12.240;2023-02-23T06:08:49;95852.59;;;6.70;65.67
12757;BME280;31601;48.042;12.240;2023-02-23T06:11:16;95858.59;;;6.70;66.29
12757;BME280;31601;48.042;12.240;2023-02-23T06:13:42;95854.81;;;6.81;65.88
12757;BME280;31601;48.042;12.240;2023-02-23T06:16:09;95855.59;;;6.90;66.21
12757;BME280;31601;48.042;12.240;2023-02-23T06:18:37;95859.50;;;6.94;66.22
12757;BME280;31601;48.042;12.240;2023-02-23T06:21:04;95859.50;;;6.94;66.58
12757;BME280;31601;48.042;12.240;2023-02-23T06:23:31;95862.88;;;7.03;66.58
12757;BME280;31601;48.042;12.240;2023-02-23T06:25:58;95868.47;;;6.91;67.27
12757;BME280;31601;48.042;12.240;2023-02-23T06:28:25;95869.44;;;6.98;67.79
12757;BME280;31601;48.042;12.240;2023-02-23T06:30:52;95873.78;;;7.06;67.69
12757;BME280;31601;48.042;12.240;2023-02-23T06:33:20;95882.53;;;7.22;67.35
12757;BME280;31601;48.042;12.240;2023-02-23T06:35:48;95876.13;;;7.24;67.35
12757;BME280;31601;48.042;12.240;2023-02-23T06:38:14;95878.72;;;7.32;67.22
12757;BME280;31601;48.042;12.240;2023-02-23T06:40:41;95878.47;;;7.42;67.36
12757;BME280;31601;48.042;12.240;2023-02-23T06:43:08;95881.09;;;7.42;67.41
12757;BME280;31601;48.042;12.240;2023-02-23T06:45:34;95884.66;;;7.49;67.03
12757;BME280;31601;48.042;12.240;2023-02-23T06:48:01;95886.16;;;7.44;66.97
12757;BME280;31601;48.042;12.240;2023-02-23T06:50:28;95879.53;;;7.56;67.10
12757;BME280;31601;48.042;12.240;2023-02-23T06:52:55;95888.66;;;7.60;66.84
12757;BME280;31601;48.042;12.240;2023-02-23T06:55:23;95888.00;;;7.58;66.61
12757;BME280;31601;48.042;12.240;2023-02-23T06:57:50;95897.28;;;7.61;66.53
12757;BME280;31601;48.042;12.240;2023-02-23T07:00:19;95900.72;;;7.61;66.34
12757;BME280;31601;48.042;12.240;2023-02-23T07:02:45;95897.06;;;7.70;66.53
12757;BME280;31601;48.042;12.240;2023-02-23T07:05:11;95895.56;;;7.76;66.40
12757;BME280;31601;48.042;12.240;2023-02-23T07:07:38;95896.59;;;7.90;66.07
12757;BME280;31601;48.042;12.240;2023-02-23T07:10:07;95901.06;;;7.81;66.22
12757;BME280;31601;48.042;12.240;2023-02-23T07:12:33;95892.22;;;8.05;65.98
12757;BME280;31601;48.042;12.240;2023-02-23T07:15:00;95894.38;;;8.25;65.51
12757;BME280;31601;48.042;12.240;2023-02-23T07:17:26;95897.88;;;8.32;64.97
12757;BME280;31601;48.042;12.240;2023-02-23T07:19:52;95900.56;;;8.47;64.80
12757;BME280;31601;48.042;12.240;2023-02-23T07:22:19;95900.94;;;8.59;64.61
12757;BME280;31601;48.042;12.240;2023-02-23T07:24:46;95904.72;;;8.71;64.31
12757;BME280;31601;48.042;12.240;2023-02-23T07:27:14;95897.41;;;8.82;63.89
12757;BME280;31601;48.042;12.240;2023-02-23T07:29:40;95907.25;;;8.80;63.34
12757;BME280;31601;48.042;12.240;2023-02-23T07:32:06;95901.47;;;8.99;63.23
12757;BME280;31601;48.042;12.240;2023-02-23T07:34:33;95906.59;;;9.07;62.94
12757;BME280;31601;48.042;12.240;2023-02-23T07:36:59;95902.28;;;9.14;62.53
12757;BME280;31601;48.042;12.240;2023-02-23T07:39:26;95902.88;;;9.17;62.08
12757;BME280;31601;48.042;12.240;2023-02-23T07:41:52;95903.59;;;9.25;61.68
12757;BME280;31601;48.042;12.240;2023-02-23T07:44:20;95905.13;;;9.20;61.55
12757;BME280;31601;48.042;12.240;2023-02-23T07:46:47;95902.59;;;9.26;61.50
12757;BME280;31601;48.042;12.240;2023-02-23T07:49:13;95908.53;;;9.35;61.31
12757;BME280;31601;48.042;12.240;2023-02-23T07:51:40;95910.69;;;9.46;61.30
12757;BME280;31601;48.042;12.240;2023-02-23T07:54:06;95897.69;;;9.53;60.78
12757;BME280;31601;48.042;12.240;2023-02-23T07:56:33;95909.53;;;9.71;60.57
12757;BME280;31601;48.042;12.240;2023-02-23T07:59:00;95906.34;;;9.75;60.48
12757;BME280;31601;48.042;12.240;2023-02-23T08:01:28;95907.25;;;9.82;60.08
12757;BME280;31601;48.042;12.240;2023-02-23T08:03:55;95912.09;;;9.85;59.78
12757;BME280;31601;48.042;12.240;2023-02-23T08:06:21;95908.19;;;9.96;59.45
12757;BME280;31601;48.042;12.240;2023-02-23T08:08:48;95913.03;;;9.99;59.24
12757;BME280;31601;48.042;12.240;2023-02-23T08:11:14;95915.16;;;10.11;59.03
12757;BME280;31601;48.042;12.240;2023-02-23T08:13:41;95923.94;;;10.25;58.87
12757;BME280;31601;48.042;12.240;2023-02-23T08:16:07;95919.13;;;10.28;58.76
12757;BME280;31601;48.042;12.240;2023-02-23T08:18:35;95919.22;;;10.35;58.29
12757;BME280;31601;48.042;12.240;2023-02-23T08:21:03;95914.44;;;10.45;57.62
12757;BME280;31601;48.042;12.240;2023-02-23T08:23:30;95912.19;;;10.42;57.66
12757;BME280;31601;48.042;12.240;2023-02-23T08:25:57;95918.91;;;10.51;57.68
12757;BME280;31601;48.042;12.240;2023-02-23T08:28:25;95914.53;;;10.59;57.21
12757;BME280;31601;48.042;12.240;2023-02-23T08:30:51;95919.84;;;10.72;57.02
12757;BME280;31601;48.042;12.240;2023-02-23T08:33:18;95925.81;;;10.87;56.41
12757;BME280;31601;48.042;12.240;2023-02-23T08:35:46;95913.13;;;10.91;55.93
12757;BME280;31601;48.042;12.240;2023-02-23T08:38:13;95920.66;;;11.07;55.47
12757;BME280;31601;48.042;12.240;2023-02-23T08:40:40;95922.47;;;11.00;54.66
12757;BME280;31601;48.042;12.240;2023-02-23T08:43:07;95919.06;;;11.06;54.29
12757;BME280;31601;48.042;12.240;2023-02-23T08:45:33;95919.31;;;11.18;54.03
12757;BME280;31601;48.042;12.240;2023-02-23T08:48:02;95914.31;;;11.30;53.87
12757;BME280;31601;48.042;12.240;2023-02-23T08:50:28;95912.09;;;11.27;53.97
12757;BME280;31601;48.042;12.240;2023-02-23T08:52:56;95917.00;;;11.43;53.84
12757;BME280;31601;48.042;12.240;2023-02-23T08:55:22;95920.88;;;11.54;53.63
12757;BME280;31601;48.042;12.240;2023-02-23T08:57:49;95924.16;;;11.70;53.32
12757;BME280;31601;48.042;12.240;2023-02-23T09:00:16;95919.94;;;11.82;53.02
12757;BME280;31601;48.042;12.240;2023-02-23T09:02:44;95919.38;;;11.93;52.75
12757;BME280;31601;48.042;12.240;2023-02-23T09:05:12;95921.81;;;11.95;52.49
12757;BME280;31601;48.042;12.240;2023-02-23T09:07:39;95915.34;;;11.97;52.40
12757;BME280;31601;48.042;12.240;2023-02-23T09:10:11;95917.16;;;11.97;52.55
12757;BME280;31601;48.042;12.240;2023-02-23T09:12:38;95916.53;;;11.88;52.95
12757;BME280;31601;48.042;12.240;2023-02-23T09:15:05;95921.59;;;11.96;52.59
12757;BME280;31601;48.042;12.240;2023-02-23T09:17:32;95918.78;;;12.05;52.83
12757;BME280;31601;48.042;12.240;2023-02-23T09:19:59;95918.81;;;12.11;52.86
12757;BME280;31601;48.042;12.240;2023-02-23T09:22:26;95923.88;;;12.20;52.83
12757;BME280;31601;48.042;12.240;2023-02-23T09:24:52;95925.66;;;12.06;52.55
12757;BME280;31601;48.042;12.240;2023-02-23T09:27:20;95920.03;;;12.22;52.08
12757;BME280;31601;48.042;12.240;2023-02-23T09:29:47;95919.00;;;12.16;52.12
12757;BME280;31601;48.042;12.240;2023-02-23T09:32:13;95915.38;;;12.24;52.32
12757;BME280;31601;48.042;12.240;2023-02-23T09:34:40;95919.41;;;12.33;52.22
12757;BME280;31601;48.042;12.240;2023-02-23T09:37:06;95921.03;;;12.41;52.26
12757;BME280;31601;48.042;12.240;2023-02-23T09:39:32;95916.78;;;12.47;51.88
12757;BME280;31601;48.042;12.240;2023-02-23T09:42:09;95922.06;;;12.47;51.94
12757;BME280;31601;48.042;12.240;2023-02-23T09:44:52;95922.03;;;12.60;51.51
12757;BME280;31601;48.042;12.240;2023-02-23T09:47:30;95916.78;;;12.67;51.41
12757;BME280;31601;48.042;12.240;2023-02-23T09:49:59;95922.22;;;12.72;51.41
12757;BME280;31601;48.042;12.240;2023-02-23T09:52:35;95914.94;;;12.81;51.11
12757;BME280;31601;48.042;12.240;2023-02-23T09:55:04;95925.84;;;12.91;50.97
12757;BME280;31601;48.042;12.240;2023-02-23T09:57:36;95921.41;;;12.92;50.88
12757;BME280;31601;48.042;12.240;2023-02-23T10:00:10;95925.41;;;12.94;51.22
12757;BME280;31601;48.042;12.240;2023-02-23T10:02:55;95927.22;;;13.00;50.84
12757;BME280;31601;48.042;12.240;2023-02-23T10:05:27;95928.69;;;12.96;51.10
12757;BME280;31601;48.042;12.240;2023-02-23T10:07:59;95919.34;;;13.00;50.93
12757;BME280;31601;48.042;12.240;2023-02-23T10:10:33;95924.59;;;13.00;51.06
12757;BME280;31601;48.042;12.240;2023-02-23T10:13:08;95924.19;;;13.03;51.06
12757;BME280;31601;48.042;12.240;2023-02-23T10:15:46;95920.94;;;13.15;51.19
12757;BME280;31601;48.042;12.240;2023-02-23T10:18:23;95917.81;;;13.31;50.98
12757;BME280;31601;48.042;12.240;2023-02-23T10:20:59;95924.69;;;13.46;50.83
12757;BME280;31601;48.042;12.240;2023-02-23T10:23:30;95920.41;;;13.51;50.66
12757;BME280;31601;48.042;12.240;2023-02-23T10:26:00;95926.25;;;13.60;50.66
12757;BME280;31601;48.042;12.240;2023-02-23T10:28:32;95925.16;;;13.74;50.51
12757;BME280;31601;48.042;12.240;2023-02-23T10:31:01;95924.72;;;13.77;50.39
12757;BME280;31601;48.042;12.240;2023-02-23T10:33:33;95915.97;;;13.90;49.99
12757;BME280;31601;48.042;12.240;2023-02-23T10:36:11;95919.66;;;13.83;49.96
12757;BME280;31601;48.042;12.240;2023-02-23T10:38:39;95915.56;;;13.87;49.95
12757;BME280;31601;48.042;12.240;2023-02-23T10:41:06;95913.69;;;13.94;50.02
12757;BME280;31601;48.042;12.240;2023-02-23T10:43:32;95905.16;;;13.99;50.00
12757;BME280;31601;48.042;12.240;2023-02-23T10:46:00;95916.69;;;14.04;50.35
12757;BME280;31601;48.042;12.240;2023-02-23T10:48:33;95905.88;;;14.12;50.13
12757;BME280;31601;48.042;12.240;2023-02-23T10:51:03;95912.75;;;14.13;49.86
12757;BME280;31601;48.042;12.240;2023-02-23T10:53:31;95903.84;;;13.83;50.85
12757;BME280;31601;48.042;12.240;2023-02-23T10:56:04;95903.91;;;14.01;50.16
12757;BME280;31601;48.042;12.240;2023-02-23T10:58:38;95905.53;;;14.02;50.70
12757;BME280;31601;48.042;12.240;2023-02-23T11:01:08;95901.22;;;14.08;50.75
12757;BME280;31601;48.042;12.240;2023-02-23T11:03:38;95908.28;;;14.39;50.24
12757;BME280;31601;48.042;12.240;2023-02-23T11:06:08;95892.13;;;14.54;50.23
12757;BME280;31601;48.042;12.240;2023-02-23T11:08:51;95890.22;;;14.68;49.96
12757;BME280;31601;48.042;12.240;2023-02-23T11:11:22;95884.00;;;14.56;50.41
12757;BME280;31601;48.042;12.240;2023-02-23T11:13:53;95885.16;;;14.85;50.03
12757;BME280;31601;48.042;12.240;2023-02-23T11:16:22;95889.06;;;15.01;50.03
12757;BME280;31601;48.042;12.240;2023-02-23T11:18:52;95879.53;;;15.18;49.44
12757;BME280;31601;48.042;12.240;2023-02-23T11:21:25;95883.41;;;15.34;49.66
12757;BME280;31601;48.042;12.240;2023-02-23T11:23:55;95883.59;;;15.51;48.79
12757;BME280;31601;48.042;12.240;2023-02-23T11:26:32;95877.13;;;15.47;48.70
12757;BME280;31601;48.042;12.240;2023-02-23T11:29:04;95871.22;;;15.64;48.41
12757;BME280;31601;48.042;12.240;2023-02-23T11:31:38;95871.63;;;15.49;48.69
12757;BME280;31601;48.042;12.240;2023-02-23T11:34:06;95862.94;;;15.11;49.24
12757;BME280;31601;48.042;12.240;2023-02-23T11:36:33;95866.44;;;15.24;49.66
12757;BME280;31601;48.042;12.240;2023-02-23T11:39:04;95865.81;;;15.58;48.96
12757;BME280;31601;48.042;12.240;2023-02-23T11:41:32;95867.38;;;15.48;49.60
12757;BME280;31601;48.042;12.240;2023-02-23T11:44:00;95860.44;;;15.65;48.87
12757;BME280;31601;48.042;12.240;2023-02-23T11:46:30;95857.44;;;15.73;49.19
12757;BME280;31601;48.042;12.240;2023-02-23T11:48:59;95857.22;;;15.75;48.95
12757;BME280;31601;48.042;12.240;2023-02-23T11:51:29;95858.94;;;15.39;49.31
12757;BME280;31601;48.042;12.240;2023-02-23T11:53:57;95857.22;;;15.63;49.24
12757;BME280;31601;48.042;12.240;2023-02-23T11:56:25;95855.47;;;15.69;49.38
12757;BME280;31601;48.042;12.240;2023-02-23T11:58:54;95850.34;;;15.74;49.42
12757;BME280;31601;48.042;12.240;2023-02-23T12:01:33;95848.66;;;15.80;49.22
12757;BME280;31601;48.042;12.240;2023-02-23T12:04:01;95849.41;;;15.19;51.08
12757;BME280;31601;48.042;12.240;2023-02-23T12:06:30;95847.53;;;15.57;50.09
12757;BME280;31601;48.042;12.240;2023-02-23T12:09:02;95845.34;;;15.66;50.06
12757;BME280;31601;48.042;12.240;2023-02-23T12:11:34;95837.91;;;15.74;50.12
12757;BME280;31601;48.042;12.240;2023-02-23T12:14:06;95838.56;;;15.88;49.79
12757;BME280;31601;48.042;12.240;2023-02-23T12:16:38;95838.44;;;15.95;49.41
12757;BME280;31601;48.042;12.240;2023-02-23T12:19:19;95835.34;;;15.98;49.52
12757;BME280;31601;48.042;12.240;2023-02-23T12:21:52;95835.00;;;16.06;49.27
12757;BME280;31601;48.042;12.240;2023-02-23T12:24:35;95834.00;;;16.19;49.44
12757;BME280;31601;48.042;12.240;2023-02-23T12:27:09;95828.34;;;16.16;49.27
12757;BME280;31601;48.042;12.240;2023-02-23T12:29:43;95825.25;;;16.19;49.36
12757;BME280;31601;48.042;12.240;2023-02-23T12:32:16;95828.16;;;15.14;50.71
12757;BME280;31601;48.042;12.240;2023-02-23T12:34:46;95822.84;;;15.33;51.18
12757;BME280;31601;48.042;12.240;2023-02-23T12:37:24;95824.63;;;15.51;50.85
12757;BME280;31601;48.042;12.240;2023-02-23T12:39:55;95816.25;;;15.66;50.57
12757;BME280;31601;48.042;12.240;2023-02-23T12:42:28;95813.34;;;15.86;50.32
12757;BME280;31601;48.042;12.240;2023-02-23T12:45:03;95821.88;;;16.00;50.26
12757;BME280;31601;48.042;12.240;2023-02-23T12:47:33;95818.78;;;16.03;49.83
12757;BME280;31601;48.042;12.240;2023-02-23T12:50:05;95816.63;;;16.11;49.67
12757;BME280;31601;48.042;12.240;2023-02-23T12:52:40;95814.41;;;15.97;49.26
12757;BME280;31601;48.042;12.240;2023-02-23T12:55:12;95814.88;;;15.93;50.20
12757;BME280;31601;48.042;12.240;2023-02-23T12:57:46;95822.72;;;15.70;50.26
12757;BME280;31601;48.042;12.240;2023-02-23T13:00:49;95818.34;;;16.06;49.81
12757;BME280;31601;48.042;12.240;2023-02-23T13:03:38;95816.63;;;16.11;49.63
12757;BME280;31601;48.042;12.240;2023-02-23T13:06:10;95811.69;;;16.27;49.19
12757;BME280;31601;48.042;12.240;2023-02-23T13:08:59;95811.09;;;16.37;48.79
12757;BME280;31601;48.042;12.240;2023-02-23T13:11:44;95806.38;;;16.39;49.12
12757;BME280;31601;48.042;12.240;2023-02-23T13:14:14;95807.19;;;16.39;48.68
12757;BME280;31601;48.042;12.240;2023-02-23T13:16:47;95803.50;;;16.28;48.71
12757;BME280;31601;48.042;12.240;2023-02-23T13:19:18;95802.81;;;16.33;48.84
12757;BME280;31601;48.042;12.240;2023-02-23T13:21:51;95801.91;;;16.39;49.02
12757;BME280;31601;48.042;12.240;2023-02-23T13:24:23;95801.78;;;16.22;49.12